Time;durP1;ratioP1;P1;durP2;ratioP2;P2;SDS_P1;SDS_P2;PMS_P1;PMS_P2;Temp;Humidity;BMP_temperature;BMP_pressure;BME280_temperature;BME280_humidity;BME280_pressure;Samples;Min_cycle;Max_cycle;Signal;HPM_P1;HPM_P2
2023/05/31 00:00:32;;;;;;;0.75;0.55;;;16.40;54.70;;;;;;5013820;28;20192;-53
2023/05/31 00:03:03;;;;;;;0.40;0.40;;;16.50;54.80;;;;;;5014024;28;20736;-53
2023/05/31 00:05:33;;;;;;;0.50;0.40;;;16.50;54.80;;;;;;5013935;28;20208;-55
2023/05/31 00:08:04;;;;;;;0.50;0.50;;;16.50;55.00;;;;;;5014358;28;20221;-54
2023/05/31 00:10:34;;;;;;;0.68;0.40;;;16.50;55.00;;;;;;5013887;28;20557;-52
2023/05/31 00:13:05;;;;;;;0.70;0.40;;;16.60;55.10;;;;;;5013703;28;20649;-55
2023/05/31 00:15:38;;;;;;;0.75;0.50;;;16.60;55.10;;;;;;5014181;28;20205;-53
2023/05/31 00:18:08;;;;;;;0.88;0.40;;;16.60;55.00;;;;;;5013177;28;20223;-52
2023/05/31 00:20:39;;;;;;;0.30;0.30;;;16.60;55.00;;;;;;5014066;28;20207;-54
2023/05/31 00:23:10;;;;;;;0.52;0.30;;;16.60;55.00;;;;;;5013925;28;20571;-55
2023/05/31 00:25:40;;;;;;;0.98;0.50;;;16.70;54.90;;;;;;5013665;28;20283;-52
2023/05/31 00:28:11;;;;;;;0.45;0.35;;;16.70;54.90;;;;;;5013148;28;20196;-54
2023/05/31 00:30:44;;;;;;;1.95;0.60;;;16.70;54.90;;;;;;5013070;28;20278;-53
2023/05/31 00:33:15;;;;;;;0.80;0.40;;;16.70;54.80;;;;;;5012907;28;20750;-51
2023/05/31 00:35:46;;;;;;;0.52;0.40;;;16.70;54.80;;;;;;5012499;28;20202;-54
2023/05/31 00:38:17;;;;;;;0.82;0.50;;;16.80;54.90;;;;;;5012672;28;20679;-53
2023/05/31 00:40:49;;;;;;;0.60;0.60;;;16.80;54.80;;;;;;5012639;28;20201;-52
2023/05/31 00:43:19;;;;;;;0.70;0.40;;;16.80;54.80;;;;;;5013178;28;20289;-53
2023/05/31 00:45:52;;;;;;;0.40;0.40;;;16.80;54.70;;;;;;5013244;28;20197;-51
2023/05/31 00:48:23;;;;;;;1.35;0.35;;;16.90;54.80;;;;;;5012186;28;20607;-54
2023/05/31 00:50:53;;;;;;;1.00;0.30;;;16.90;55.10;;;;;;5011299;28;20223;-54
2023/05/31 00:53:25;;;;;;;0.68;0.30;;;16.90;55.00;;;;;;5012713;28;20232;-53
2023/05/31 00:55:56;;;;;;;0.38;0.35;;;17.00;55.10;;;;;;5012841;28;20193;-55
2023/05/31 00:58:28;;;;;;;0.28;0.28;;;17.00;55.00;;;;;;5013088;28;20255;-56
2023/05/31 01:01:01;;;;;;;0.50;0.30;;;17.00;54.90;;;;;;5012536;28;20197;-53
2023/05/31 01:03:32;;;;;;;0.28;0.28;;;17.10;54.90;;;;;;5013042;28;20367;-54
2023/05/31 01:06:03;;;;;;;1.25;0.50;;;17.00;54.80;;;;;;5013031;28;20712;-54
2023/05/31 01:08:34;;;;;;;0.70;0.50;;;17.10;54.80;;;;;;5012953;28;20236;-55
2023/05/31 01:11:12;;;;;;;0.68;0.38;;;17.10;54.60;;;;;;5013128;28;20904;-55
2023/05/31 01:13:50;;;;;;;0.60;0.40;;;17.10;54.60;;;;;;5013397;28;20734;-53
2023/05/31 01:16:29;;;;;;;0.93;0.40;;;17.20;54.60;;;;;;5001906;28;20612;-51
2023/05/31 01:19:06;;;;;;;0.35;0.35;;;17.20;54.60;;;;;;5013540;28;20197;-54
2023/05/31 01:21:51;;;;;;;0.57;0.30;;;17.20;54.60;;;;;;5012426;28;20307;-52
2023/05/31 01:24:36;;;;;;;0.40;0.40;;;17.20;54.60;;;;;;5012584;28;20189;-54
2023/05/31 01:27:10;;;;;;;0.60;0.40;;;17.30;54.60;;;;;;5012739;28;20859;-51
2023/05/31 01:29:42;;;;;;;0.50;0.30;;;17.30;54.60;;;;;;5012072;28;20228;-52
2023/05/31 01:32:14;;;;;;;0.30;0.30;;;17.30;54.60;;;;;;5012513;28;20239;-55
2023/05/31 01:34:48;;;;;;;0.50;0.22;;;17.30;54.60;;;;;;5012655;28;20666;-53
2023/05/31 01:37:19;;;;;;;0.40;0.30;;;17.30;54.60;;;;;;5011477;28;20746;-55
2023/05/31 01:39:52;;;;;;;0.75;0.30;;;17.40;54.60;;;;;;5011086;28;20193;-51
2023/05/31 01:42:26;;;;;;;0.68;0.30;;;17.40;54.60;;;;;;5011668;28;20275;-54
2023/05/31 01:44:57;;;;;;;0.47;0.30;;;17.40;54.60;;;;;;5011489;28;20207;-55
2023/05/31 01:47:28;;;;;;;0.40;0.40;;;17.40;54.50;;;;;;5012793;28;20208;-56
2023/05/31 01:50:00;;;;;;;0.38;0.30;;;17.40;54.60;;;;;;5011736;28;20254;-54
2023/05/31 01:52:32;;;;;;;0.35;0.30;;;17.50;54.60;;;;;;5009140;28;20212;-53
2023/05/31 01:55:03;;;;;;;0.20;0.20;;;17.50;54.60;;;;;;5011937;28;20201;-56
2023/05/31 01:57:39;;;;;;;0.63;0.40;;;17.50;54.50;;;;;;5012332;28;20606;-51
2023/05/31 02:00:13;;;;;;;0.30;0.30;;;17.50;54.50;;;;;;5012501;28;20201;-55
2023/05/31 02:02:44;;;;;;;0.15;0.15;;;17.60;54.60;;;;;;5012303;28;20256;-54
2023/05/31 02:05:15;;;;;;;0.30;0.30;;;17.60;54.50;;;;;;5012487;28;20197;-52
2023/05/31 02:07:47;;;;;;;0.63;0.28;;;17.70;54.60;;;;;;5012016;28;20197;-52
2023/05/31 02:10:18;;;;;;;0.20;0.20;;;17.70;54.60;;;;;;5011686;28;20247;-52
2023/05/31 02:12:54;;;;;;;1.67;0.50;;;17.70;54.50;;;;;;5011710;28;20225;-55
2023/05/31 02:15:25;;;;;;;0.20;0.20;;;17.70;54.60;;;;;;5012204;28;20696;-54
2023/05/31 02:17:56;;;;;;;0.65;0.30;;;17.70;54.50;;;;;;5011747;28;20205;-53
2023/05/31 02:20:26;;;;;;;0.20;0.20;;;17.80;54.50;;;;;;5011531;28;20247;-54
2023/05/31 02:22:57;;;;;;;0.20;0.20;;;17.80;54.50;;;;;;5012004;28;20228;-55
2023/05/31 02:25:28;;;;;;;0.32;0.25;;;17.90;54.50;;;;;;5011867;28;20665;-54
2023/05/31 02:28:00;;;;;;;0.30;0.20;;;17.90;54.40;;;;;;5011586;28;20208;-55
2023/05/31 02:30:32;;;;;;;0.30;0.20;;;17.90;54.40;;;;;;5012143;28;20196;-53
2023/05/31 02:33:03;;;;;;;0.10;0.10;;;18.00;54.40;;;;;;5011715;28;20344;-52
2023/05/31 02:35:34;;;;;;;0.10;0.10;;;18.00;54.30;;;;;;5011712;28;20201;-55
2023/05/31 02:38:05;;;;;;;0.60;0.22;;;18.00;54.30;;;;;;5009353;28;20193;-52
2023/05/31 02:40:36;;;;;;;0.30;0.20;;;18.00;54.30;;;;;;5011709;28;20196;-56
2023/05/31 02:43:08;;;;;;;0.30;0.30;;;18.00;54.30;;;;;;5012085;28;20724;-53
2023/05/31 02:45:39;;;;;;;0.57;0.20;;;18.00;54.30;;;;;;5011589;28;20598;-51
2023/05/31 02:48:10;;;;;;;0.30;0.30;;;18.10;54.30;;;;;;5011256;28;20197;-52
2023/05/31 02:50:40;;;;;;;0.20;0.20;;;18.10;54.20;;;;;;5011915;28;20553;-55
2023/05/31 02:53:11;;;;;;;0.20;0.20;;;18.10;54.20;;;;;;5012000;28;20225;-54
2023/05/31 02:55:42;;;;;;;0.20;0.20;;;18.20;54.20;;;;;;5011812;28;20201;-54
2023/05/31 02:58:14;;;;;;;0.20;0.20;;;18.20;54.20;;;;;;5011889;28;20200;-56
2023/05/31 03:00:46;;;;;;;0.25;0.25;;;18.20;54.10;;;;;;5011663;28;20196;-57
2023/05/31 03:03:18;;;;;;;0.17;0.17;;;18.30;54.10;;;;;;5011149;28;20228;-58
2023/05/31 03:05:51;;;;;;;0.10;0.10;;;18.30;54.10;;;;;;5011865;28;20193;-56
2023/05/31 03:08:22;;;;;;;0.55;0.20;;;18.30;54.10;;;;;;5011998;28;20207;-54
2023/05/31 03:10:53;;;;;;;0.20;0.20;;;18.30;54.00;;;;;;5011597;28;20205;-53
2023/05/31 03:13:25;;;;;;;0.20;0.20;;;18.30;54.00;;;;;;5011433;28;20220;-56
2023/05/31 03:15:56;;;;;;;0.52;0.20;;;18.30;53.90;;;;;;5011357;28;20596;-56
2023/05/31 03:18:27;;;;;;;0.20;0.20;;;18.30;53.90;;;;;;5011283;28;20259;-57
2023/05/31 03:20:57;;;;;;;0.20;0.20;;;18.40;53.90;;;;;;5011125;28;20726;-56
2023/05/31 03:23:28;;;;;;;0.10;0.10;;;18.40;53.90;;;;;;5010787;28;20200;-55
2023/05/31 03:25:59;;;;;;;0.20;0.20;;;18.40;54.00;;;;;;5011312;28;20764;-57
2023/05/31 03:28:31;;;;;;;0.40;0.30;;;18.40;53.90;;;;;;5011426;28;20200;-54
2023/05/31 03:31:02;;;;;;;0.22;0.20;;;18.40;53.90;;;;;;5014121;28;20232;-57
2023/05/31 03:33:33;;;;;;;0.80;0.30;;;18.40;53.90;;;;;;5015390;28;20220;-56
2023/05/31 03:36:04;;;;;;;0.20;0.20;;;18.50;53.90;;;;;;5015351;28;20287;-58
2023/05/31 03:38:34;;;;;;;0.28;0.20;;;18.50;53.90;;;;;;5015547;28;20203;-54
2023/05/31 03:41:05;;;;;;;0.15;0.15;;;18.50;53.80;;;;;;5015312;28;20711;-53
2023/05/31 03:43:37;;;;;;;1.05;0.28;;;18.50;53.90;;;;;;5015131;28;20200;-57
2023/05/31 03:46:09;;;;;;;0.20;0.20;;;18.50;53.80;;;;;;5014759;28;20209;-57
2023/05/31 03:48:40;;;;;;;0.57;0.30;;;18.50;53.90;;;;;;5013809;28;20212;-54
2023/05/31 03:51:10;;;;;;;0.30;0.30;;;18.50;53.80;;;;;;5015344;28;20203;-55
2023/05/31 03:53:41;;;;;;;0.25;0.20;;;18.50;53.80;;;;;;5015098;28;20227;-55
2023/05/31 03:56:11;;;;;;;0.20;0.20;;;18.50;53.70;;;;;;5015109;28;20200;-55
2023/05/31 03:58:45;;;;;;;0.20;0.20;;;18.50;53.70;;;;;;5014510;28;20680;-56
2023/05/31 04:01:15;;;;;;;0.30;0.30;;;18.50;53.70;;;;;;5014050;28;20213;-57
2023/05/31 04:03:46;;;;;;;0.20;0.20;;;18.50;53.60;;;;;;5014205;28;20386;-53
2023/05/31 04:06:17;;;;;;;0.20;0.17;;;18.50;53.60;;;;;;5014153;28;20201;-55
2023/05/31 04:08:47;;;;;;;0.10;0.10;;;18.50;53.70;;;;;;5013965;28;20203;-55
2023/05/31 04:11:18;;;;;;;0.35;0.20;;;18.50;53.80;;;;;;5014007;28;20224;-57
2023/05/31 04:13:50;;;;;;;0.25;0.25;;;18.60;53.80;;;;;;5014131;28;20755;-55
2023/05/31 04:16:21;;;;;;;0.43;0.20;;;18.60;53.70;;;;;;5014306;28;20736;-57
2023/05/31 04:18:52;;;;;;;0.10;0.10;;;18.60;53.70;;;;;;5014206;28;20206;-56
2023/05/31 04:21:22;;;;;;;0.20;0.15;;;18.60;53.70;;;;;;5014178;28;20228;-55
2023/05/31 04:23:53;;;;;;;0.20;0.20;;;18.60;53.70;;;;;;5014340;28;20208;-57
2023/05/31 04:26:24;;;;;;;0.85;0.32;;;18.60;53.70;;;;;;5014120;28;20201;-56
2023/05/31 04:28:57;;;;;;;0.32;0.30;;;18.60;53.00;;;;;;5014292;28;20204;-54
2023/05/31 04:31:28;;;;;;;1.17;0.40;;;18.60;52.80;;;;;;5014213;28;20217;-53
2023/05/31 04:33:59;;;;;;;1.10;0.40;;;18.60;52.30;;;;;;5014074;28;20316;-59
2023/05/31 04:36:32;;;;;;;1.13;0.40;;;18.60;52.10;;;;;;5013620;28;20607;-57
2023/05/31 04:39:03;;;;;;;0.60;0.40;;;18.60;52.20;;;;;;5012874;28;20196;-54
2023/05/31 04:41:33;;;;;;;1.05;0.35;;;18.60;52.20;;;;;;5012887;28;20220;-54
2023/05/31 04:44:06;;;;;;;4.35;0.70;;;18.60;52.20;;;;;;5013821;28;20212;-57
2023/05/31 04:46:36;;;;;;;0.65;0.40;;;18.60;52.20;;;;;;5013339;28;20189;-56
2023/05/31 04:49:10;;;;;;;0.30;0.30;;;18.70;52.30;;;;;;5013063;28;20692;-56
2023/05/31 04:51:41;;;;;;;0.38;0.30;;;18.70;52.30;;;;;;5013238;28;20217;-55
2023/05/31 04:54:11;;;;;;;1.33;0.40;;;18.60;52.30;;;;;;5013722;28;20225;-57
2023/05/31 04:56:42;;;;;;;3.97;0.40;;;18.60;52.30;;;;;;5013798;28;20204;-56
2023/05/31 04:59:14;;;;;;;0.82;0.40;;;18.60;52.40;;;;;;5013671;28;20197;-57
2023/05/31 05:01:45;;;;;;;2.05;0.47;;;18.70;52.50;;;;;;5013524;28;20216;-57
2023/05/31 05:04:16;;;;;;;1.15;0.50;;;18.60;52.40;;;;;;5013576;28;20223;-56
2023/05/31 05:06:46;;;;;;;2.00;0.60;;;18.60;52.40;;;;;;5013333;28;20201;-57
2023/05/31 05:09:17;;;;;;;1.60;0.55;;;18.60;52.40;;;;;;5012912;28;20193;-56
2023/05/31 05:11:48;;;;;;;1.00;0.45;;;18.60;52.50;;;;;;5013317;28;20235;-57
2023/05/31 05:14:20;;;;;;;0.40;0.40;;;18.60;52.50;;;;;;5013613;28;20233;-57
2023/05/31 05:16:51;;;;;;;0.63;0.40;;;18.60;52.50;;;;;;5008863;28;20234;-55
2023/05/31 05:19:22;;;;;;;0.50;0.50;;;18.60;52.40;;;;;;5012558;28;20200;-57
2023/05/31 05:21:52;;;;;;;1.25;0.40;;;18.60;52.50;;;;;;5012492;28;20249;-56
2023/05/31 05:24:23;;;;;;;0.55;0.38;;;18.60;52.50;;;;;;5012522;28;20196;-56
2023/05/31 05:26:54;;;;;;;2.45;0.40;;;18.60;52.40;;;;;;5012392;28;20193;-58
2023/05/31 05:29:26;;;;;;;2.08;0.40;;;18.60;52.40;;;;;;5004739;28;20684;-55
2023/05/31 05:31:57;;;;;;;1.20;0.60;;;18.60;52.40;;;;;;5011833;28;20611;-51
2023/05/31 05:34:27;;;;;;;0.95;0.60;;;18.60;52.40;;;;;;5012071;28;20240;-56
2023/05/31 05:36:58;;;;;;;1.73;0.40;;;18.60;52.30;;;;;;5011547;28;20212;-56
2023/05/31 05:39:29;;;;;;;0.52;0.30;;;18.60;52.30;;;;;;5012503;28;20196;-52
2023/05/31 05:41:59;;;;;;;1.38;0.40;;;18.60;52.40;;;;;;5011351;28;20689;-56
2023/05/31 05:44:32;;;;;;;0.90;0.50;;;18.60;52.40;;;;;;5011339;28;20622;-57
2023/05/31 05:47:02;;;;;;;0.98;0.60;;;18.60;52.30;;;;;;5011650;28;20665;-55
2023/05/31 05:49:34;;;;;;;2.10;0.50;;;18.60;52.40;;;;;;5011830;28;20212;-55
2023/05/31 05:52:05;;;;;;;0.80;0.43;;;18.60;52.40;;;;;;5011269;28;20632;-56
2023/05/31 05:54:35;;;;;;;0.85;0.40;;;18.60;52.50;;;;;;5011519;28;20224;-55
2023/05/31 05:57:06;;;;;;;2.05;0.68;;;18.60;52.50;;;;;;5011839;28;20271;-54
2023/05/31 05:59:41;;;;;;;0.32;0.30;;;18.60;52.50;;;;;;5011280;28;20201;-54
2023/05/31 06:02:11;;;;;;;0.50;0.40;;;18.60;52.50;;;;;;5012215;28;20239;-56
2023/05/31 06:04:42;;;;;;;0.40;0.40;;;18.60;52.50;;;;;;5011597;28;20691;-55
2023/05/31 06:07:12;;;;;;;1.30;0.63;;;18.60;52.50;;;;;;5011482;28;20189;-55
2023/05/31 06:09:43;;;;;;;0.50;0.40;;;18.60;52.50;;;;;;5012150;28;20197;-54
2023/05/31 06:12:14;;;;;;;1.45;0.40;;;18.60;53.10;;;;;;5011872;28;20220;-55
2023/05/31 06:14:48;;;;;;;0.35;0.32;;;18.60;52.50;;;;;;5011386;28;20225;-55
2023/05/31 06:17:18;;;;;;;1.08;0.43;;;18.60;52.40;;;;;;5011387;28;20201;-54
2023/05/31 06:19:49;;;;;;;0.57;0.40;;;18.60;52.50;;;;;;5011037;28;20216;-51
2023/05/31 06:22:23;;;;;;;0.40;0.40;;;18.60;52.50;;;;;;5011241;28;20221;-55
2023/05/31 06:24:54;;;;;;;1.27;0.40;;;18.50;52.40;;;;;;5011683;28;20223;-57
2023/05/31 06:27:24;;;;;;;0.40;0.40;;;18.50;52.50;;;;;;5010911;28;20386;-55
2023/05/31 06:29:58;;;;;;;0.95;0.40;;;18.50;52.60;;;;;;5011669;28;20201;-55
2023/05/31 06:32:29;;;;;;;0.38;0.38;;;18.50;52.50;;;;;;5011382;28;20279;-55
2023/05/31 06:35:00;;;;;;;0.30;0.30;;;18.50;52.50;;;;;;5011235;28;20225;-53
2023/05/31 06:37:31;;;;;;;0.50;0.43;;;18.50;52.60;;;;;;5011242;28;20228;-56
2023/05/31 06:40:02;;;;;;;0.50;0.47;;;18.50;52.60;;;;;;5011540;28;20684;-57
2023/05/31 06:42:33;;;;;;;0.35;0.30;;;18.50;52.60;;;;;;5011020;28;20216;-57
2023/05/31 06:45:05;;;;;;;0.30;0.30;;;18.50;52.60;;;;;;5011083;28;20544;-56
2023/05/31 06:47:36;;;;;;;0.82;0.50;;;18.50;52.60;;;;;;5010185;28;20196;-57
2023/05/31 06:50:07;;;;;;;0.70;0.40;;;18.50;52.60;;;;;;5010816;28;20201;-56
2023/05/31 06:52:38;;;;;;;0.60;0.60;;;18.50;52.60;;;;;;5003393;28;20216;-54
2023/05/31 06:55:10;;;;;;;0.77;0.43;;;18.50;52.60;;;;;;4991996;28;20244;-55
2023/05/31 06:57:41;;;;;;;0.77;0.40;;;18.50;52.60;;;;;;5007029;28;20193;-55
2023/05/31 07:00:14;;;;;;;0.40;0.40;;;18.50;52.60;;;;;;5010608;28;20197;-57
2023/05/31 07:02:45;;;;;;;0.45;0.45;;;18.50;52.60;;;;;;5010489;28;20240;-56
2023/05/31 07:05:19;;;;;;;0.93;0.50;;;18.50;52.60;;;;;;5010328;28;20564;-55
2023/05/31 07:07:49;;;;;;;0.40;0.40;;;18.40;52.60;;;;;;5010218;28;20220;-55
2023/05/31 07:10:20;;;;;;;0.43;0.43;;;18.40;52.60;;;;;;5010717;28;20197;-55
2023/05/31 07:12:51;;;;;;;0.63;0.50;;;18.50;52.70;;;;;;5009920;28;20220;-55
2023/05/31 07:15:23;;;;;;;0.60;0.60;;;18.40;52.70;;;;;;5010664;28;20272;-56
2023/05/31 07:17:54;;;;;;;0.50;0.32;;;18.40;52.70;;;;;;5010647;28;20199;-54
2023/05/31 07:20:25;;;;;;;0.57;0.47;;;18.50;52.80;;;;;;5010109;28;20215;-54
2023/05/31 07:22:55;;;;;;;0.75;0.50;;;18.40;52.70;;;;;;5010820;28;20217;-56
2023/05/31 07:25:26;;;;;;;0.80;0.60;;;18.40;52.70;;;;;;5010527;28;20197;-54
2023/05/31 07:27:57;;;;;;;0.40;0.40;;;18.40;52.70;;;;;;5010564;28;20192;-58
2023/05/31 07:30:29;;;;;;;0.43;0.38;;;18.40;52.70;;;;;;5010050;28;20645;-55
2023/05/31 07:33:00;;;;;;;0.40;0.40;;;18.40;52.70;;;;;;5010125;28;20212;-55
2023/05/31 07:35:30;;;;;;;1.13;0.60;;;18.40;52.70;;;;;;5010997;28;20228;-54
2023/05/31 07:38:01;;;;;;;0.55;0.52;;;18.40;52.60;;;;;;5010178;28;20197;-53
2023/05/31 07:40:32;;;;;;;0.40;0.40;;;18.40;52.60;;;;;;5010945;28;20201;-56
2023/05/31 07:43:02;;;;;;;0.50;0.50;;;18.40;52.70;;;;;;5010443;28;20716;-55
2023/05/31 07:45:35;;;;;;;0.43;0.43;;;18.30;52.60;;;;;;5011009;28;20196;-55
2023/05/31 07:48:06;;;;;;;0.50;0.50;;;18.40;52.70;;;;;;4991338;28;20662;-56
2023/05/31 07:50:36;;;;;;;0.50;0.50;;;18.30;52.70;;;;;;4991407;28;20197;-56
2023/05/31 07:53:07;;;;;;;0.60;0.50;;;18.40;52.80;;;;;;4993760;28;20218;-56
2023/05/31 07:55:38;;;;;;;0.52;0.50;;;18.40;52.80;;;;;;5010690;28;20228;-56
2023/05/31 07:58:10;;;;;;;0.73;0.60;;;18.30;52.80;;;;;;5010461;28;20217;-59
2023/05/31 08:00:42;;;;;;;0.32;0.32;;;18.30;52.80;;;;;;5010954;28;20650;-54
2023/05/31 08:03:13;;;;;;;0.20;0.20;;;18.30;52.80;;;;;;5010722;28;20693;-58
2023/05/31 08:05:45;;;;;;;0.75;0.57;;;18.30;52.80;;;;;;5010777;28;20753;-57
2023/05/31 08:08:15;;;;;;;0.85;0.60;;;18.40;52.90;;;;;;5010758;28;20204;-54
2023/05/31 08:10:46;;;;;;;0.43;0.43;;;18.30;52.80;;;;;;5010789;28;20677;-57
2023/05/31 08:13:17;;;;;;;1.08;0.50;;;18.30;52.80;;;;;;5009558;28;20235;-55
2023/05/31 08:15:49;;;;;;;1.40;0.60;;;18.30;52.80;;;;;;5009741;28;20236;-53
2023/05/31 08:18:20;;;;;;;0.75;0.40;;;18.30;52.70;;;;;;5012867;28;20197;-58
2023/05/31 08:20:50;;;;;;;0.60;0.60;;;18.30;52.70;;;;;;5013601;28;20228;-57
2023/05/31 08:23:22;;;;;;;0.82;0.50;;;18.30;52.80;;;;;;5014177;28;20689;-57
2023/05/31 08:25:53;;;;;;;0.40;0.40;;;18.30;52.80;;;;;;5014475;28;20204;-54
2023/05/31 08:28:23;;;;;;;0.60;0.50;;;18.30;52.80;;;;;;5014570;28;20279;-54
2023/05/31 08:30:56;;;;;;;0.45;0.40;;;18.30;52.90;;;;;;5014678;28;20209;-55
2023/05/31 08:33:29;;;;;;;0.63;0.45;;;18.30;52.80;;;;;;5014317;28;20197;-56
2023/05/31 08:36:00;;;;;;;0.80;0.38;;;18.30;52.90;;;;;;5013508;28;20618;-54
2023/05/31 08:38:31;;;;;;;0.47;0.40;;;18.30;52.90;;;;;;5013875;28;20609;-56
2023/05/31 08:41:03;;;;;;;0.50;0.50;;;18.30;52.90;;;;;;5013586;28;20197;-55
2023/05/31 08:43:35;;;;;;;0.40;0.40;;;18.30;52.90;;;;;;5013555;28;20197;-54
2023/05/31 08:46:08;;;;;;;0.40;0.40;;;18.20;52.90;;;;;;5013118;28;20716;-54
2023/05/31 08:48:43;;;;;;;1.92;0.57;;;18.30;52.90;;;;;;5013593;28;20720;-57
2023/05/31 08:51:14;;;;;;;0.82;0.60;;;18.20;52.80;;;;;;5013583;28;20197;-56
2023/05/31 08:53:45;;;;;;;0.38;0.38;;;18.20;52.80;;;;;;5014528;28;20212;-58
2023/05/31 08:56:17;;;;;;;0.40;0.40;;;18.20;52.80;;;;;;5013780;28;20251;-58
2023/05/31 08:58:51;;;;;;;1.20;0.50;;;18.20;52.80;;;;;;5013553;28;20193;-57
2023/05/31 09:01:24;;;;;;;0.68;0.68;;;18.20;52.80;;;;;;5013397;28;20900;-58
2023/05/31 09:03:56;;;;;;;0.63;0.40;;;18.20;52.90;;;;;;5012364;28;20561;-56
2023/05/31 09:06:27;;;;;;;0.85;0.60;;;18.20;52.90;;;;;;5013560;28;20220;-58
2023/05/31 09:08:59;;;;;;;1.15;0.80;;;18.20;53.50;;;;;;5013419;28;20661;-57
2023/05/31 09:11:30;;;;;;;0.65;0.60;;;18.20;53.80;;;;;;5012774;28;20224;-56
2023/05/31 09:14:00;;;;;;;0.55;0.47;;;18.20;53.70;;;;;;5010651;28;20197;-57
2023/05/31 09:16:33;;;;;;;1.25;0.60;;;18.20;53.60;;;;;;5011940;28;20337;-57
2023/05/31 09:19:04;;;;;;;1.58;0.68;;;18.20;53.60;;;;;;5012956;28;20595;-58
2023/05/31 09:21:42;;;;;;;0.60;0.60;;;18.20;53.50;;;;;;5012518;28;20221;-58
2023/05/31 09:24:15;;;;;;;1.52;0.50;;;18.20;53.50;;;;;;5012726;28;20195;-58
2023/05/31 09:26:53;;;;;;;1.08;0.55;;;18.20;53.40;;;;;;5012599;28;20211;-58
2023/05/31 09:29:24;;;;;;;0.45;0.45;;;18.20;53.40;;;;;;5012351;28;20192;-59
2023/05/31 09:32:11;;;;;;;0.57;0.57;;;18.20;53.30;;;;;;5011927;28;20217;-56
2023/05/31 09:34:42;;;;;;;0.70;0.50;;;18.20;53.30;;;;;;5012483;28;20711;-58
2023/05/31 09:37:23;;;;;;;0.80;0.57;;;18.20;53.30;;;;;;5012476;28;20670;-58
2023/05/31 09:40:00;;;;;;;1.08;0.55;;;18.20;53.30;;;;;;5010636;28;20197;-57
2023/05/31 09:42:30;;;;;;;0.98;0.60;;;18.20;53.30;;;;;;5012695;28;20228;-58
2023/05/31 09:45:03;;;;;;;0.60;0.60;;;18.10;53.30;;;;;;5011254;28;20204;-58
2023/05/31 09:47:39;;;;;;;0.57;0.45;;;18.10;53.30;;;;;;5012857;28;20208;-57
2023/05/31 09:50:12;;;;;;;0.60;0.60;;;18.10;53.30;;;;;;5012292;28;20228;-56
2023/05/31 09:52:45;;;;;;;1.05;0.70;;;18.10;53.30;;;;;;5011197;28;20225;-58
2023/05/31 09:55:17;;;;;;;0.55;0.50;;;18.10;53.30;;;;;;5012555;28;20649;-58
2023/05/31 09:57:49;;;;;;;1.27;0.70;;;18.10;53.30;;;;;;5012624;28;20243;-56
2023/05/31 10:00:20;;;;;;;0.50;0.45;;;18.10;53.30;;;;;;5011310;28;20250;-58
2023/05/31 10:02:53;;;;;;;1.25;0.60;;;18.10;53.90;;;;;;5012020;28;20864;-58
2023/05/31 10:05:24;;;;;;;0.43;0.43;;;18.10;53.30;;;;;;5011576;28;20561;-55
2023/05/31 10:07:56;;;;;;;0.63;0.50;;;18.10;53.30;;;;;;5011847;28;20203;-58
2023/05/31 10:10:26;;;;;;;0.90;0.60;;;18.10;53.30;;;;;;5012027;28;20565;-57
2023/05/31 10:13:00;;;;;;;1.02;0.80;;;18.10;53.30;;;;;;5012052;28;20244;-58
2023/05/31 10:15:33;;;;;;;1.13;0.55;;;18.10;53.30;;;;;;5011840;28;20197;-58
2023/05/31 10:18:09;;;;;;;0.70;0.70;;;18.00;53.30;;;;;;5011886;28;20200;-56
2023/05/31 10:20:44;;;;;;;0.57;0.57;;;18.00;53.30;;;;;;5010990;28;20243;-57
2023/05/31 10:23:22;;;;;;;0.93;0.50;;;18.10;53.30;;;;;;5011248;28;20216;-56
2023/05/31 10:26:00;;;;;;;0.60;0.50;;;18.10;53.30;;;;;;5011311;28;20223;-55
2023/05/31 10:28:33;;;;;;;0.98;0.50;;;18.00;53.90;;;;;;5011439;28;20204;-58
2023/05/31 10:31:05;;;;;;;0.50;0.50;;;18.00;53.30;;;;;;5011443;28;20200;-57
2023/05/31 10:33:38;;;;;;;0.50;0.50;;;18.10;53.30;;;;;;5011835;28;20193;-54
2023/05/31 10:36:09;;;;;;;0.50;0.50;;;18.00;53.30;;;;;;5011181;28;20212;-55
2023/05/31 10:38:44;;;;;;;0.60;0.60;;;18.00;53.30;;;;;;5011110;28;20200;-57
2023/05/31 10:41:19;;;;;;;0.70;0.60;;;18.00;53.40;;;;;;5010298;28;20200;-55
2023/05/31 10:43:55;;;;;;;0.47;0.47;;;18.00;53.30;;;;;;5012115;28;20200;-57
2023/05/31 10:46:28;;;;;;;0.60;0.60;;;18.00;53.40;;;;;;5011922;28;20545;-56
2023/05/31 10:49:02;;;;;;;0.43;0.43;;;18.00;53.30;;;;;;5010444;28;20232;-57
2023/05/31 10:51:46;;;;;;;0.63;0.60;;;18.00;53.30;;;;;;5008474;28;20640;-57
2023/05/31 10:54:22;;;;;;;0.57;0.50;;;18.00;53.30;;;;;;5011735;28;20207;-58
2023/05/31 10:56:59;;;;;;;1.15;0.70;;;18.00;53.30;;;;;;5011813;28;20224;-58
2023/05/31 10:59:30;;;;;;;0.63;0.50;;;18.00;53.30;;;;;;5011749;28;20743;-58
2023/05/31 11:02:01;;;;;;;0.50;0.50;;;18.00;53.30;;;;;;5011412;28;20267;-58
2023/05/31 11:04:34;;;;;;;0.57;0.57;;;18.00;53.40;;;;;;5011459;28;20239;-59
2023/05/31 11:07:22;;;;;;;0.88;0.60;;;18.00;53.40;;;;;;5011822;28;20200;-58
2023/05/31 11:10:00;;;;;;;1.63;0.52;;;18.00;53.40;;;;;;5011316;28;20189;-58
2023/05/31 11:12:38;;;;;;;0.68;0.65;;;18.00;53.40;;;;;;5009060;28;20247;-59
2023/05/31 11:15:16;;;;;;;0.50;0.40;;;18.00;53.40;;;;;;5009075;28;20216;-57
2023/05/31 11:17:56;;;;;;;0.55;0.55;;;18.00;53.40;;;;;;5008652;28;20231;-58
2023/05/31 11:20:30;;;;;;;1.15;0.75;;;18.00;53.40;;;;;;5008224;28;20204;-57
2023/05/31 11:23:30;;;;;;;0.52;0.50;;;18.00;53.40;;;;;;5010673;28;20213;-56
2023/05/31 11:26:20;;;;;;;0.60;0.50;;;18.00;53.40;;;;;;5010356;28;20189;-56
2023/05/31 11:29:01;;;;;;;0.60;0.50;;;18.00;53.40;;;;;;5009184;28;20284;-57
2023/05/31 11:32:01;;;;;;;0.60;0.60;;;18.00;53.40;;;;;;5009436;28;20213;-57
2023/05/31 11:34:33;;;;;;;0.90;0.55;;;17.90;53.40;;;;;;5009227;28;20263;-58
2023/05/31 11:37:07;;;;;;;0.70;0.55;;;18.00;53.40;;;;;;5010318;28;20829;-58
2023/05/31 11:39:38;;;;;;;0.75;0.45;;;17.90;53.40;;;;;;5010596;28;20224;-58
2023/05/31 11:42:10;;;;;;;1.63;0.57;;;17.90;53.40;;;;;;5008415;28;20208;-58
2023/05/31 11:44:45;;;;;;;0.88;0.60;;;17.90;53.40;;;;;;5010638;28;20185;-58
2023/05/31 11:47:21;;;;;;;0.65;0.60;;;17.90;53.40;;;;;;5010770;28;20188;-58
2023/05/31 11:49:53;;;;;;;0.50;0.50;;;17.90;53.40;;;;;;5008210;28;20200;-58
2023/05/31 11:52:25;;;;;;;0.50;0.50;;;17.90;53.40;;;;;;5014018;28;20209;-59
2023/05/31 11:54:57;;;;;;;0.60;0.40;;;17.90;53.40;;;;;;5015149;28;20192;-59
2023/05/31 11:57:28;;;;;;;0.50;0.50;;;17.90;53.50;;;;;;5012191;28;20300;-59
2023/05/31 12:00:10;;;;;;;0.50;0.50;;;17.90;53.50;;;;;;5014833;28;20239;-58
2023/05/31 12:02:42;;;;;;;0.55;0.40;;;18.00;53.50;;;;;;5014218;28;20697;-58
2023/05/31 12:05:15;;;;;;;0.80;0.60;;;17.90;53.50;;;;;;5014796;28;20200;-57
2023/05/31 12:07:48;;;;;;;0.50;0.50;;;18.00;53.50;;;;;;5012106;28;20207;-58
2023/05/31 12:10:20;;;;;;;1.15;0.52;;;17.90;53.40;;;;;;5014663;28;20530;-58
2023/05/31 12:12:51;;;;;;;0.88;0.50;;;18.00;53.50;;;;;;5012588;28;20590;-58
2023/05/31 12:15:21;;;;;;;0.82;0.60;;;17.90;53.40;;;;;;5014302;28;20189;-59
2023/05/31 12:17:52;;;;;;;0.65;0.60;;;18.00;53.40;;;;;;5014054;28;20227;-58
2023/05/31 12:20:23;;;;;;;0.75;0.50;;;17.90;53.40;;;;;;5014147;28;20204;-58
2023/05/31 12:22:55;;;;;;;0.85;0.70;;;18.00;53.50;;;;;;5014165;28;20221;-58
2023/05/31 12:25:29;;;;;;;0.60;0.40;;;17.90;53.40;;;;;;5011293;28;20189;-57
2023/05/31 12:28:00;;;;;;;0.50;0.47;;;17.90;53.40;;;;;;5013770;28;20288;-58
2023/05/31 12:30:30;;;;;;;0.45;0.40;;;18.00;53.50;;;;;;5011858;28;20215;-58
2023/05/31 12:33:02;;;;;;;0.30;0.30;;;18.00;53.50;;;;;;5013813;28;20205;-58
2023/05/31 12:35:41;;;;;;;0.70;0.55;;;18.00;54.10;;;;;;5013936;28;20185;-58
2023/05/31 12:38:14;;;;;;;0.73;0.50;;;18.00;53.50;;;;;;5012058;28;20256;-58
2023/05/31 12:40:48;;;;;;;0.77;0.50;;;18.00;53.50;;;;;;5013894;28;20189;-58
2023/05/31 12:43:22;;;;;;;0.82;0.57;;;18.00;53.50;;;;;;5014006;28;20227;-58
2023/05/31 12:45:56;;;;;;;0.50;0.40;;;18.00;53.50;;;;;;5013567;28;20208;-58
2023/05/31 12:48:27;;;;;;;0.60;0.60;;;18.00;53.50;;;;;;5011281;28;20200;-58
2023/05/31 12:51:00;;;;;;;0.40;0.40;;;18.00;53.50;;;;;;5013769;28;20196;-58
2023/05/31 12:53:33;;;;;;;0.90;0.52;;;18.00;53.50;;;;;;5013940;28;20594;-58
2023/05/31 12:56:04;;;;;;;0.50;0.47;;;17.90;53.50;;;;;;5013798;28;20595;-58
2023/05/31 12:58:35;;;;;;;0.63;0.50;;;18.00;53.50;;;;;;5013632;28;20717;-58
2023/05/31 13:01:07;;;;;;;0.50;0.50;;;17.90;53.50;;;;;;5013939;28;20252;-58
2023/05/31 13:03:38;;;;;;;0.60;0.60;;;18.00;53.50;;;;;;5013068;28;20205;-58
2023/05/31 13:06:08;;;;;;;1.08;0.60;;;18.00;53.50;;;;;;5013665;28;20201;-58
2023/05/31 13:08:41;;;;;;;0.50;0.50;;;17.90;54.10;;;;;;5012999;28;20201;-58
2023/05/31 13:11:12;;;;;;;0.57;0.50;;;17.90;53.50;;;;;;5013276;28;20201;-58
2023/05/31 13:13:42;;;;;;;0.45;0.45;;;18.00;53.50;;;;;;5013764;28;20665;-58